sensor_id;sensor_type;location;lat;lon;timestamp;P1;durP1;ratioP1;P2;durP2;ratioP2
59998;SDS011;45859;51.378;6.736;2022-08-11T00:00:37;3.53;;;1.83;;
59998;SDS011;45859;51.378;6.736;2022-08-11T00:03:07;3.85;;;2.05;;
59998;SDS011;45859;51.378;6.736;2022-08-11T00:05:43;3.50;;;2.40;;
59998;SDS011;45859;51.378;6.736;2022-08-11T00:08:09;4.53;;;2.10;;
59998;SDS011;45859;51.378;6.736;2022-08-11T00:10:44;25.80;;;2.33;;
59998;SDS011;45859;51.378;6.736;2022-08-11T00:13:22;2.25;;;2.05;;
59998;SDS011;45859;51.378;6.736;2022-08-11T00:15:56;2.38;;;2.10;;
59998;SDS011;45859;51.378;6.736;2022-08-11T00:18:22;3.60;;;2.28;;
59998;SDS011;45859;51.378;6.736;2022-08-11T00:20:49;2.83;;;1.92;;
59998;SDS011;45859;51.378;6.736;2022-08-11T00:23:17;3.50;;;2.30;;
59998;SDS011;45859;51.378;6.736;2022-08-11T00:25:48;4.22;;;2.25;;
59998;SDS011;45859;51.378;6.736;2022-08-11T00:30:55;2.33;;;1.95;;
59998;SDS011;45859;51.378;6.736;2022-08-11T00:33:35;3.92;;;2.10;;
59998;SDS011;45859;51.378;6.736;2022-08-11T00:36:02;2.90;;;2.00;;
59998;SDS011;45859;51.378;6.736;2022-08-11T00:38:30;2.15;;;1.85;;
59998;SDS011;45859;51.378;6.736;2022-08-11T00:46:55;5.95;;;2.13;;
59998;SDS011;45859;51.378;6.736;2022-08-11T00:57:58;3.67;;;2.13;;
59998;SDS011;45859;51.378;6.736;2022-08-11T01:11:22;4.15;;;2.90;;
59998;SDS011;45859;51.378;6.736;2022-08-11T01:37:39;5.82;;;2.35;;
59998;SDS011;45859;51.378;6.736;2022-08-11T01:48:41;5.38;;;2.22;;
59998;SDS011;45859;51.378;6.736;2022-08-11T01:54:04;4.57;;;2.10;;
59998;SDS011;45859;51.378;6.736;2022-08-11T01:56:45;4.65;;;2.30;;
59998;SDS011;45859;51.378;6.736;2022-08-11T01:59:40;3.67;;;2.30;;
59998;SDS011;45859;51.378;6.736;2022-08-11T02:05:22;4.63;;;2.97;;
59998;SDS011;45859;51.378;6.736;2022-08-11T02:11:08;3.35;;;2.22;;
59998;SDS011;45859;51.378;6.736;2022-08-11T02:14:05;6.50;;;2.47;;
59998;SDS011;45859;51.378;6.736;2022-08-11T02:22:22;4.38;;;2.55;;
59998;SDS011;45859;51.378;6.736;2022-08-11T02:25:40;4.20;;;2.75;;
59998;SDS011;45859;51.378;6.736;2022-08-11T02:31:07;4.95;;;2.55;;
59998;SDS011;45859;51.378;6.736;2022-08-11T02:34:06;6.95;;;2.83;;
59998;SDS011;45859;51.378;6.736;2022-08-11T02:36:43;5.85;;;2.67;;
59998;SDS011;45859;51.378;6.736;2022-08-11T02:39:19;5.35;;;2.97;;
59998;SDS011;45859;51.378;6.736;2022-08-11T02:41:50;3.77;;;2.70;;
59998;SDS011;45859;51.378;6.736;2022-08-11T02:49:55;4.80;;;2.90;;
59998;SDS011;45859;51.378;6.736;2022-08-11T02:52:42;5.57;;;2.58;;
59998;SDS011;45859;51.378;6.736;2022-08-11T02:55:34;5.88;;;2.90;;
59998;SDS011;45859;51.378;6.736;2022-08-11T02:58:18;5.05;;;2.80;;
59998;SDS011;45859;51.378;6.736;2022-08-11T03:01:08;5.88;;;2.75;;
59998;SDS011;45859;51.378;6.736;2022-08-11T03:06:38;6.20;;;2.95;;
59998;SDS011;45859;51.378;6.736;2022-08-11T03:09:39;3.58;;;2.78;;
59998;SDS011;45859;51.378;6.736;2022-08-11T03:12:32;6.35;;;2.80;;
59998;SDS011;45859;51.378;6.736;2022-08-11T03:15:47;5.50;;;3.40;;
59998;SDS011;45859;51.378;6.736;2022-08-11T03:18:40;4.07;;;2.95;;
59998;SDS011;45859;51.378;6.736;2022-08-11T03:21:23;6.47;;;2.95;;
59998;SDS011;45859;51.378;6.736;2022-08-11T03:27:08;6.00;;;3.05;;
59998;SDS011;45859;51.378;6.736;2022-08-11T03:29:46;4.32;;;3.08;;
59998;SDS011;45859;51.378;6.736;2022-08-11T03:32:41;4.75;;;3.00;;
59998;SDS011;45859;51.378;6.736;2022-08-11T03:35:36;5.90;;;2.87;;
59998;SDS011;45859;51.378;6.736;2022-08-11T03:38:23;4.87;;;3.20;;
59998;SDS011;45859;51.378;6.736;2022-08-11T03:52:47;4.73;;;3.07;;
59998;SDS011;45859;51.378;6.736;2022-08-11T04:26:37;5.27;;;2.90;;
59998;SDS011;45859;51.378;6.736;2022-08-11T04:29:38;3.87;;;3.03;;
59998;SDS011;45859;51.378;6.736;2022-08-11T04:32:35;4.97;;;3.30;;
59998;SDS011;45859;51.378;6.736;2022-08-11T04:35:18;5.80;;;3.13;;
59998;SDS011;45859;51.378;6.736;2022-08-11T04:56:18;6.50;;;3.20;;
59998;SDS011;45859;51.378;6.736;2022-08-11T05:02:35;6.53;;;4.00;;
59998;SDS011;45859;51.378;6.736;2022-08-11T05:17:08;6.07;;;3.47;;
59998;SDS011;45859;51.378;6.736;2022-08-11T05:22:47;7.20;;;3.30;;
59998;SDS011;45859;51.378;6.736;2022-08-11T05:25:33;5.50;;;3.28;;
59998;SDS011;45859;51.378;6.736;2022-08-11T05:28:37;4.90;;;3.25;;
59998;SDS011;45859;51.378;6.736;2022-08-11T05:31:35;5.15;;;3.60;;
59998;SDS011;45859;51.378;6.736;2022-08-11T05:34:22;3.88;;;3.13;;
59998;SDS011;45859;51.378;6.736;2022-08-11T05:37:16;4.85;;;2.75;;
59998;SDS011;45859;51.378;6.736;2022-08-11T05:39:48;5.88;;;2.92;;
59998;SDS011;45859;51.378;6.736;2022-08-11T05:42:38;5.03;;;3.10;;
59998;SDS011;45859;51.378;6.736;2022-08-11T05:45:31;5.60;;;3.05;;
59998;SDS011;45859;51.378;6.736;2022-08-11T05:48:18;4.28;;;3.08;;
59998;SDS011;45859;51.378;6.736;2022-08-11T05:51:03;5.75;;;3.15;;
59998;SDS011;45859;51.378;6.736;2022-08-11T05:53:50;6.43;;;3.20;;
59998;SDS011;45859;51.378;6.736;2022-08-11T05:56:49;5.40;;;3.20;;
59998;SDS011;45859;51.378;6.736;2022-08-11T05:59:18;7.20;;;3.10;;
59998;SDS011;45859;51.378;6.736;2022-08-11T06:01:45;5.38;;;2.75;;
59998;SDS011;45859;51.378;6.736;2022-08-11T06:04:16;4.00;;;2.63;;
59998;SDS011;45859;51.378;6.736;2022-08-11T06:09:23;5.10;;;2.83;;
59998;SDS011;45859;51.378;6.736;2022-08-11T06:11:52;3.65;;;2.58;;
59998;SDS011;45859;51.378;6.736;2022-08-11T06:14:21;3.70;;;2.78;;
59998;SDS011;45859;51.378;6.736;2022-08-11T06:16:49;5.38;;;2.60;;
59998;SDS011;45859;51.378;6.736;2022-08-11T06:19:28;5.45;;;2.80;;
59998;SDS011;45859;51.378;6.736;2022-08-11T06:21:57;5.10;;;3.08;;
59998;SDS011;45859;51.378;6.736;2022-08-11T06:24:24;5.00;;;2.78;;
59998;SDS011;45859;51.378;6.736;2022-08-11T06:26:53;3.70;;;3.10;;
59998;SDS011;45859;51.378;6.736;2022-08-11T06:29:21;4.55;;;2.72;;
59998;SDS011;45859;51.378;6.736;2022-08-11T06:31:55;3.78;;;2.58;;
59998;SDS011;45859;51.378;6.736;2022-08-11T06:37:39;9.00;;;2.60;;
59998;SDS011;45859;51.378;6.736;2022-08-11T06:42:46;9.50;;;2.83;;
59998;SDS011;45859;51.378;6.736;2022-08-11T06:45:56;5.65;;;2.50;;
59998;SDS011;45859;51.378;6.736;2022-08-11T06:48:28;4.22;;;2.92;;
59998;SDS011;45859;51.378;6.736;2022-08-11T06:50:57;4.22;;;2.80;;
59998;SDS011;45859;51.378;6.736;2022-08-11T06:53:38;3.58;;;2.45;;
59998;SDS011;45859;51.378;6.736;2022-08-11T06:56:15;4.10;;;2.78;;
59998;SDS011;45859;51.378;6.736;2022-08-11T06:59:06;7.15;;;2.78;;
59998;SDS011;45859;51.378;6.736;2022-08-11T07:13:58;3.40;;;2.50;;
59998;SDS011;45859;51.378;6.736;2022-08-11T07:16:44;6.03;;;2.42;;
59998;SDS011;45859;51.378;6.736;2022-08-11T07:19:15;4.60;;;2.50;;
59998;SDS011;45859;51.378;6.736;2022-08-11T07:22:05;4.32;;;2.58;;
59998;SDS011;45859;51.378;6.736;2022-08-11T07:24:55;4.53;;;2.33;;
59998;SDS011;45859;51.378;6.736;2022-08-11T07:27:47;4.03;;;2.63;;
59998;SDS011;45859;51.378;6.736;2022-08-11T07:30:43;4.22;;;2.55;;
59998;SDS011;45859;51.378;6.736;2022-08-11T07:33:11;5.30;;;2.63;;
59998;SDS011;45859;51.378;6.736;2022-08-11T07:35:52;7.53;;;2.70;;
59998;SDS011;45859;51.378;6.736;2022-08-11T07:38:22;2.78;;;2.33;;
59998;SDS011;45859;51.378;6.736;2022-08-11T07:41:08;3.40;;;2.50;;
59998;SDS011;45859;51.378;6.736;2022-08-11T07:43:41;10.05;;;2.85;;
59998;SDS011;45859;51.378;6.736;2022-08-11T07:46:13;3.90;;;2.10;;
59998;SDS011;45859;51.378;6.736;2022-08-11T07:48:58;6.85;;;2.67;;
59998;SDS011;45859;51.378;6.736;2022-08-11T07:51:44;3.47;;;2.20;;
59998;SDS011;45859;51.378;6.736;2022-08-11T07:54:28;4.80;;;2.75;;
59998;SDS011;45859;51.378;6.736;2022-08-11T07:56:55;3.55;;;2.53;;
59998;SDS011;45859;51.378;6.736;2022-08-11T07:59:22;5.18;;;2.38;;
59998;SDS011;45859;51.378;6.736;2022-08-11T08:02:08;2.90;;;2.15;;
59998;SDS011;45859;51.378;6.736;2022-08-11T08:04:55;5.68;;;2.25;;
59998;SDS011;45859;51.378;6.736;2022-08-11T08:07:40;9.40;;;3.45;;
59998;SDS011;45859;51.378;6.736;2022-08-11T08:10:25;2.95;;;2.28;;
59998;SDS011;45859;51.378;6.736;2022-08-11T08:13:11;4.85;;;2.30;;
59998;SDS011;45859;51.378;6.736;2022-08-11T08:15:56;4.78;;;2.30;;
59998;SDS011;45859;51.378;6.736;2022-08-11T08:18:40;2.58;;;2.05;;
59998;SDS011;45859;51.378;6.736;2022-08-11T08:21:07;5.60;;;2.35;;
59998;SDS011;45859;51.378;6.736;2022-08-11T08:23:36;4.50;;;2.15;;
59998;SDS011;45859;51.378;6.736;2022-08-11T08:26:07;4.15;;;2.40;;
59998;SDS011;45859;51.378;6.736;2022-08-11T08:28:55;2.28;;;2.08;;
59998;SDS011;45859;51.378;6.736;2022-08-11T08:31:43;5.10;;;2.55;;
59998;SDS011;45859;51.378;6.736;2022-08-11T08:34:12;3.00;;;2.25;;
59998;SDS011;45859;51.378;6.736;2022-08-11T08:36:49;6.75;;;2.47;;
59998;SDS011;45859;51.378;6.736;2022-08-11T08:39:22;2.70;;;2.50;;
59998;SDS011;45859;51.378;6.736;2022-08-11T08:41:48;7.25;;;2.90;;
59998;SDS011;45859;51.378;6.736;2022-08-11T08:44:22;4.90;;;2.53;;
59998;SDS011;45859;51.378;6.736;2022-08-11T08:46:51;5.75;;;2.50;;
59998;SDS011;45859;51.378;6.736;2022-08-11T08:49:34;4.13;;;2.63;;
59998;SDS011;45859;51.378;6.736;2022-08-11T08:52:02;6.97;;;2.55;;
59998;SDS011;45859;51.378;6.736;2022-08-11T08:54:36;3.47;;;2.20;;
59998;SDS011;45859;51.378;6.736;2022-08-11T08:57:05;5.97;;;2.83;;
59998;SDS011;45859;51.378;6.736;2022-08-11T08:59:36;5.55;;;2.55;;
59998;SDS011;45859;51.378;6.736;2022-08-11T09:02:04;4.63;;;2.63;;
59998;SDS011;45859;51.378;6.736;2022-08-11T09:04:32;4.57;;;2.42;;
59998;SDS011;45859;51.378;6.736;2022-08-11T09:07:02;4.50;;;2.65;;
59998;SDS011;45859;51.378;6.736;2022-08-11T09:09:33;4.43;;;2.50;;
59998;SDS011;45859;51.378;6.736;2022-08-11T09:11:59;7.47;;;2.40;;
59998;SDS011;45859;51.378;6.736;2022-08-11T09:17:21;3.40;;;2.30;;
59998;SDS011;45859;51.378;6.736;2022-08-11T09:19:50;5.07;;;2.47;;
59998;SDS011;45859;51.378;6.736;2022-08-11T09:22:28;4.30;;;2.33;;
59998;SDS011;45859;51.378;6.736;2022-08-11T09:25:15;2.58;;;2.30;;
59998;SDS011;45859;51.378;6.736;2022-08-11T09:28:01;3.28;;;2.05;;
59998;SDS011;45859;51.378;6.736;2022-08-11T09:30:29;3.83;;;2.35;;
59998;SDS011;45859;51.378;6.736;2022-08-11T09:32:57;2.70;;;2.30;;
59998;SDS011;45859;51.378;6.736;2022-08-11T09:35:26;2.72;;;2.22;;
59998;SDS011;45859;51.378;6.736;2022-08-11T09:37:53;4.28;;;2.28;;
59998;SDS011;45859;51.378;6.736;2022-08-11T09:40:40;7.80;;;2.47;;
59998;SDS011;45859;51.378;6.736;2022-08-11T09:45:54;3.67;;;2.55;;
59998;SDS011;45859;51.378;6.736;2022-08-11T09:48:24;7.57;;;2.63;;
59998;SDS011;45859;51.378;6.736;2022-08-11T09:50:59;5.73;;;2.63;;
59998;SDS011;45859;51.378;6.736;2022-08-11T09:53:27;4.72;;;2.50;;
59998;SDS011;45859;51.378;6.736;2022-08-11T09:55:56;3.28;;;2.53;;
59998;SDS011;45859;51.378;6.736;2022-08-11T09:58:22;6.28;;;3.15;;
59998;SDS011;45859;51.378;6.736;2022-08-11T10:00:49;3.38;;;2.78;;
59998;SDS011;45859;51.378;6.736;2022-08-11T10:03:26;5.30;;;2.72;;
59998;SDS011;45859;51.378;6.736;2022-08-11T10:05:55;3.55;;;2.50;;
59998;SDS011;45859;51.378;6.736;2022-08-11T10:08:43;3.80;;;2.50;;
59998;SDS011;45859;51.378;6.736;2022-08-11T10:11:13;6.03;;;3.10;;
59998;SDS011;45859;51.378;6.736;2022-08-11T10:13:45;3.45;;;2.50;;
59998;SDS011;45859;51.378;6.736;2022-08-11T10:16:34;3.10;;;2.30;;
59998;SDS011;45859;51.378;6.736;2022-08-11T10:19:03;2.78;;;2.58;;
59998;SDS011;45859;51.378;6.736;2022-08-11T10:21:31;3.53;;;2.80;;
59998;SDS011;45859;51.378;6.736;2022-08-11T10:24:00;4.50;;;2.67;;
59998;SDS011;45859;51.378;6.736;2022-08-11T10:27:04;4.20;;;2.97;;
59998;SDS011;45859;51.378;6.736;2022-08-11T10:29:48;7.40;;;3.00;;
59998;SDS011;45859;51.378;6.736;2022-08-11T10:32:33;4.05;;;3.00;;
59998;SDS011;45859;51.378;6.736;2022-08-11T10:35:19;4.72;;;3.20;;
59998;SDS011;45859;51.378;6.736;2022-08-11T10:37:50;11.70;;;2.85;;
59998;SDS011;45859;51.378;6.736;2022-08-11T10:40:17;5.47;;;3.20;;
59998;SDS011;45859;51.378;6.736;2022-08-11T10:42:57;3.33;;;2.85;;
59998;SDS011;45859;51.378;6.736;2022-08-11T10:45:34;8.88;;;3.63;;
59998;SDS011;45859;51.378;6.736;2022-08-11T10:48:20;6.55;;;2.90;;
59998;SDS011;45859;51.378;6.736;2022-08-11T10:50:48;4.22;;;2.92;;
59998;SDS011;45859;51.378;6.736;2022-08-11T10:53:37;4.38;;;2.90;;
59998;SDS011;45859;51.378;6.736;2022-08-11T10:56:36;4.63;;;2.75;;
59998;SDS011;45859;51.378;6.736;2022-08-11T10:59:22;6.93;;;3.22;;
59998;SDS011;45859;51.378;6.736;2022-08-11T11:01:51;5.20;;;3.00;;
59998;SDS011;45859;51.378;6.736;2022-08-11T11:04:20;10.98;;;3.47;;
59998;SDS011;45859;51.378;6.736;2022-08-11T11:09:31;5.32;;;2.88;;
59998;SDS011;45859;51.378;6.736;2022-08-11T11:12:12;5.03;;;2.83;;
59998;SDS011;45859;51.378;6.736;2022-08-11T11:15:12;4.53;;;3.13;;
59998;SDS011;45859;51.378;6.736;2022-08-11T11:18:03;6.07;;;3.65;;
59998;SDS011;45859;51.378;6.736;2022-08-11T11:20:40;4.03;;;3.10;;
59998;SDS011;45859;51.378;6.736;2022-08-11T11:36:47;5.55;;;3.10;;
59998;SDS011;45859;51.378;6.736;2022-08-11T11:39:22;4.57;;;3.00;;
59998;SDS011;45859;51.378;6.736;2022-08-11T11:41:51;4.03;;;3.30;;
59998;SDS011;45859;51.378;6.736;2022-08-11T11:44:19;4.57;;;3.00;;
59998;SDS011;45859;51.378;6.736;2022-08-11T11:46:50;3.92;;;3.42;;
59998;SDS011;45859;51.378;6.736;2022-08-11T11:49:17;3.38;;;2.95;;
59998;SDS011;45859;51.378;6.736;2022-08-11T11:51:48;4.93;;;3.03;;
59998;SDS011;45859;51.378;6.736;2022-08-11T11:54:17;4.57;;;2.78;;
59998;SDS011;45859;51.378;6.736;2022-08-11T11:56:49;3.33;;;3.03;;
59998;SDS011;45859;51.378;6.736;2022-08-11T11:59:20;3.47;;;3.00;;
59998;SDS011;45859;51.378;6.736;2022-08-11T12:02:07;4.20;;;3.00;;
59998;SDS011;45859;51.378;6.736;2022-08-11T12:04:35;3.88;;;3.10;;
59998;SDS011;45859;51.378;6.736;2022-08-11T12:07:02;7.57;;;3.03;;
59998;SDS011;45859;51.378;6.736;2022-08-11T12:09:47;4.18;;;3.17;;
59998;SDS011;45859;51.378;6.736;2022-08-11T12:12:14;3.20;;;2.80;;
59998;SDS011;45859;51.378;6.736;2022-08-11T12:14:58;4.72;;;3.00;;
59998;SDS011;45859;51.378;6.736;2022-08-11T12:17:24;4.95;;;3.08;;
59998;SDS011;45859;51.378;6.736;2022-08-11T12:19:50;4.70;;;2.88;;
59998;SDS011;45859;51.378;6.736;2022-08-11T12:22:17;5.00;;;3.08;;
59998;SDS011;45859;51.378;6.736;2022-08-11T12:25:21;6.35;;;3.22;;
59998;SDS011;45859;51.378;6.736;2022-08-11T12:28:05;4.15;;;2.92;;
59998;SDS011;45859;51.378;6.736;2022-08-11T12:30:31;5.88;;;3.28;;
59998;SDS011;45859;51.378;6.736;2022-08-11T12:32:57;4.75;;;3.08;;
59998;SDS011;45859;51.378;6.736;2022-08-11T12:35:23;2.95;;;2.70;;
59998;SDS011;45859;51.378;6.736;2022-08-11T12:37:51;6.25;;;3.40;;
59998;SDS011;45859;51.378;6.736;2022-08-11T12:40:23;3.30;;;3.00;;
59998;SDS011;45859;51.378;6.736;2022-08-11T12:43:13;4.90;;;3.22;;
59998;SDS011;45859;51.378;6.736;2022-08-11T12:46:00;4.55;;;2.97;;
59998;SDS011;45859;51.378;6.736;2022-08-11T12:48:31;4.40;;;3.00;;
59998;SDS011;45859;51.378;6.736;2022-08-11T12:51:27;3.50;;;2.78;;
59998;SDS011;45859;51.378;6.736;2022-08-11T12:54:24;5.20;;;3.38;;
59998;SDS011;45859;51.378;6.736;2022-08-11T12:57:10;6.93;;;3.40;;
59998;SDS011;45859;51.378;6.736;2022-08-11T12:59:58;4.35;;;3.10;;
59998;SDS011;45859;51.378;6.736;2022-08-11T13:02:43;4.57;;;2.80;;
59998;SDS011;45859;51.378;6.736;2022-08-11T13:05:30;4.38;;;2.90;;
59998;SDS011;45859;51.378;6.736;2022-08-11T13:07:57;3.92;;;3.10;;
59998;SDS011;45859;51.378;6.736;2022-08-11T13:10:28;3.45;;;3.00;;
59998;SDS011;45859;51.378;6.736;2022-08-11T13:13:14;4.20;;;2.97;;
59998;SDS011;45859;51.378;6.736;2022-08-11T13:15:44;4.40;;;2.78;;
59998;SDS011;45859;51.378;6.736;2022-08-11T13:18:20;3.53;;;2.92;;
59998;SDS011;45859;51.378;6.736;2022-08-11T13:20:53;5.32;;;3.35;;
59998;SDS011;45859;51.378;6.736;2022-08-11T13:23:21;4.38;;;2.90;;
59998;SDS011;45859;51.378;6.736;2022-08-11T13:25:50;4.68;;;3.10;;
59998;SDS011;45859;51.378;6.736;2022-08-11T13:28:19;3.63;;;2.70;;
59998;SDS011;45859;51.378;6.736;2022-08-11T13:30:47;7.88;;;2.92;;
59998;SDS011;45859;51.378;6.736;2022-08-11T13:36:06;5.85;;;3.05;;
59998;SDS011;45859;51.378;6.736;2022-08-11T13:38:32;7.10;;;3.38;;
59998;SDS011;45859;51.378;6.736;2022-08-11T13:40:59;3.72;;;3.17;;
59998;SDS011;45859;51.378;6.736;2022-08-11T13:43:26;3.53;;;3.10;;
59998;SDS011;45859;51.378;6.736;2022-08-11T13:45:52;4.22;;;2.90;;
59998;SDS011;45859;51.378;6.736;2022-08-11T13:48:39;3.22;;;2.90;;
59998;SDS011;45859;51.378;6.736;2022-08-11T13:51:06;3.90;;;3.03;;
59998;SDS011;45859;51.378;6.736;2022-08-11T13:53:52;7.63;;;2.90;;
59998;SDS011;45859;51.378;6.736;2022-08-11T13:56:20;5.30;;;3.03;;
59998;SDS011;45859;51.378;6.736;2022-08-11T13:58:47;4.15;;;2.83;;
59998;SDS011;45859;51.378;6.736;2022-08-11T14:01:14;4.88;;;3.15;;
59998;SDS011;45859;51.378;6.736;2022-08-11T14:03:41;6.00;;;3.38;;
59998;SDS011;45859;51.378;6.736;2022-08-11T14:06:08;3.47;;;2.90;;
59998;SDS011;45859;51.378;6.736;2022-08-11T14:08:36;3.35;;;2.85;;
59998;SDS011;45859;51.378;6.736;2022-08-11T14:11:04;5.93;;;3.40;;
59998;SDS011;45859;51.378;6.736;2022-08-11T14:13:50;4.20;;;3.10;;
59998;SDS011;45859;51.378;6.736;2022-08-11T14:16:21;4.22;;;2.80;;
59998;SDS011;45859;51.378;6.736;2022-08-11T14:19:02;6.20;;;3.05;;
59998;SDS011;45859;51.378;6.736;2022-08-11T14:21:34;3.65;;;3.08;;
59998;SDS011;45859;51.378;6.736;2022-08-11T14:26:50;3.70;;;3.20;;
59998;SDS011;45859;51.378;6.736;2022-08-11T14:29:18;3.65;;;3.20;;
59998;SDS011;45859;51.378;6.736;2022-08-11T14:31:46;4.13;;;3.30;;
59998;SDS011;45859;51.378;6.736;2022-08-11T14:34:14;3.75;;;2.90;;
59998;SDS011;45859;51.378;6.736;2022-08-11T14:36:46;5.00;;;3.28;;
59998;SDS011;45859;51.378;6.736;2022-08-11T14:39:18;3.17;;;2.97;;
59998;SDS011;45859;51.378;6.736;2022-08-11T14:41:58;4.78;;;3.13;;
59998;SDS011;45859;51.378;6.736;2022-08-11T14:44:46;4.38;;;3.47;;
59998;SDS011;45859;51.378;6.736;2022-08-11T14:47:47;6.75;;;2.88;;
59998;SDS011;45859;51.378;6.736;2022-08-11T14:50:20;3.95;;;3.17;;
59998;SDS011;45859;51.378;6.736;2022-08-11T14:52:52;4.85;;;3.25;;
59998;SDS011;45859;51.378;6.736;2022-08-11T14:55:22;3.60;;;3.30;;
59998;SDS011;45859;51.378;6.736;2022-08-11T14:58:13;5.85;;;3.30;;
59998;SDS011;45859;51.378;6.736;2022-08-11T15:00:42;5.22;;;3.15;;
59998;SDS011;45859;51.378;6.736;2022-08-11T15:03:12;3.70;;;3.40;;
59998;SDS011;45859;51.378;6.736;2022-08-11T15:08:13;3.47;;;3.17;;
59998;SDS011;45859;51.378;6.736;2022-08-11T15:10:40;3.53;;;3.25;;
59998;SDS011;45859;51.378;6.736;2022-08-11T15:13:07;3.58;;;3.28;;
59998;SDS011;45859;51.378;6.736;2022-08-11T15:15:34;4.15;;;3.03;;
59998;SDS011;45859;51.378;6.736;2022-08-11T15:18:19;3.72;;;3.35;;
59998;SDS011;45859;51.378;6.736;2022-08-11T15:23:33;3.38;;;3.08;;
59998;SDS011;45859;51.378;6.736;2022-08-11T15:29:32;3.80;;;2.92;;
59998;SDS011;45859;51.378;6.736;2022-08-11T15:32:20;3.58;;;3.17;;
59998;SDS011;45859;51.378;6.736;2022-08-11T15:34:58;4.72;;;3.15;;
59998;SDS011;45859;51.378;6.736;2022-08-11T15:37:43;7.82;;;3.25;;
59998;SDS011;45859;51.378;6.736;2022-08-11T15:43:28;3.17;;;2.90;;
59998;SDS011;45859;51.378;6.736;2022-08-11T15:48:57;3.88;;;3.25;;
59998;SDS011;45859;51.378;6.736;2022-08-11T15:54:05;5.57;;;3.22;;
59998;SDS011;45859;51.378;6.736;2022-08-11T15:56:39;5.13;;;3.00;;
59998;SDS011;45859;51.378;6.736;2022-08-11T15:59:08;6.20;;;2.95;;
59998;SDS011;45859;51.378;6.736;2022-08-11T16:01:56;4.55;;;3.20;;
59998;SDS011;45859;51.378;6.736;2022-08-11T16:04:44;7.55;;;2.90;;
59998;SDS011;45859;51.378;6.736;2022-08-11T16:07:15;3.83;;;3.08;;
59998;SDS011;45859;51.378;6.736;2022-08-11T16:09:48;5.57;;;3.10;;
59998;SDS011;45859;51.378;6.736;2022-08-11T16:12:18;5.07;;;3.13;;
59998;SDS011;45859;51.378;6.736;2022-08-11T16:14:51;3.03;;;2.83;;
59998;SDS011;45859;51.378;6.736;2022-08-11T16:17:46;4.00;;;2.75;;
59998;SDS011;45859;51.378;6.736;2022-08-11T16:20:14;4.47;;;2.80;;
59998;SDS011;45859;51.378;6.736;2022-08-11T16:22:43;6.88;;;3.50;;
59998;SDS011;45859;51.378;6.736;2022-08-11T16:25:22;5.00;;;2.80;;
59998;SDS011;45859;51.378;6.736;2022-08-11T16:27:51;3.08;;;2.80;;
59998;SDS011;45859;51.378;6.736;2022-08-11T16:30:23;3.13;;;2.85;;
59998;SDS011;45859;51.378;6.736;2022-08-11T16:32:50;3.58;;;3.10;;
59998;SDS011;45859;51.378;6.736;2022-08-11T16:35:22;4.63;;;3.22;;
59998;SDS011;45859;51.378;6.736;2022-08-11T16:38:08;3.42;;;3.08;;
59998;SDS011;45859;51.378;6.736;2022-08-11T16:40:55;3.78;;;3.13;;
59998;SDS011;45859;51.378;6.736;2022-08-11T16:43:24;4.28;;;2.85;;
59998;SDS011;45859;51.378;6.736;2022-08-11T16:46:11;5.13;;;3.05;;
59998;SDS011;45859;51.378;6.736;2022-08-11T16:49:06;5.55;;;3.22;;
59998;SDS011;45859;51.378;6.736;2022-08-11T16:51:36;4.68;;;2.78;;
59998;SDS011;45859;51.378;6.736;2022-08-11T16:54:02;4.18;;;2.88;;
59998;SDS011;45859;51.378;6.736;2022-08-11T16:56:40;4.85;;;2.65;;
59998;SDS011;45859;51.378;6.736;2022-08-11T17:01:53;7.13;;;3.17;;
59998;SDS011;45859;51.378;6.736;2022-08-11T17:07:26;3.72;;;2.92;;
59998;SDS011;45859;51.378;6.736;2022-08-11T17:10:16;3.58;;;2.78;;
59998;SDS011;45859;51.378;6.736;2022-08-11T17:13:05;5.10;;;3.20;;
59998;SDS011;45859;51.378;6.736;2022-08-11T17:15:37;4.85;;;3.15;;
59998;SDS011;45859;51.378;6.736;2022-08-11T17:18:33;5.57;;;3.00;;
59998;SDS011;45859;51.378;6.736;2022-08-11T17:21:54;3.13;;;2.58;;
59998;SDS011;45859;51.378;6.736;2022-08-11T17:24:07;3.55;;;3.00;;
59998;SDS011;45859;51.378;6.736;2022-08-11T17:26:42;3.85;;;2.67;;
59998;SDS011;45859;51.378;6.736;2022-08-11T17:29:36;5.75;;;3.05;;
59998;SDS011;45859;51.378;6.736;2022-08-11T17:32:05;4.70;;;3.10;;
59998;SDS011;45859;51.378;6.736;2022-08-11T17:34:54;4.50;;;2.80;;
59998;SDS011;45859;51.378;6.736;2022-08-11T17:37:42;4.63;;;2.97;;
59998;SDS011;45859;51.378;6.736;2022-08-11T17:40:10;4.95;;;3.08;;
59998;SDS011;45859;51.378;6.736;2022-08-11T17:42:39;4.28;;;3.10;;
59998;SDS011;45859;51.378;6.736;2022-08-11T17:45:26;3.25;;;2.92;;
59998;SDS011;45859;51.378;6.736;2022-08-11T17:48:11;3.40;;;3.10;;
59998;SDS011;45859;51.378;6.736;2022-08-11T17:51:07;3.95;;;3.10;;
59998;SDS011;45859;51.378;6.736;2022-08-11T17:53:57;4.15;;;3.20;;
59998;SDS011;45859;51.378;6.736;2022-08-11T17:56:43;4.47;;;3.22;;
59998;SDS011;45859;51.378;6.736;2022-08-11T17:59:30;3.85;;;3.25;;
59998;SDS011;45859;51.378;6.736;2022-08-11T18:02:15;3.83;;;2.92;;
59998;SDS011;45859;51.378;6.736;2022-08-11T18:05:06;5.40;;;2.97;;
59998;SDS011;45859;51.378;6.736;2022-08-11T18:07:33;3.83;;;2.97;;
59998;SDS011;45859;51.378;6.736;2022-08-11T18:10:18;3.58;;;2.92;;
59998;SDS011;45859;51.378;6.736;2022-08-11T18:13:03;5.35;;;3.20;;
59998;SDS011;45859;51.378;6.736;2022-08-11T18:15:48;4.20;;;3.05;;
59998;SDS011;45859;51.378;6.736;2022-08-11T18:18:34;3.17;;;2.88;;
59998;SDS011;45859;51.378;6.736;2022-08-11T18:21:18;5.45;;;3.55;;
59998;SDS011;45859;51.378;6.736;2022-08-11T18:24:08;5.60;;;3.50;;
59998;SDS011;45859;51.378;6.736;2022-08-11T18:26:56;5.70;;;3.15;;
59998;SDS011;45859;51.378;6.736;2022-08-11T18:29:42;5.93;;;3.28;;
59998;SDS011;45859;51.378;6.736;2022-08-11T18:32:31;3.67;;;3.00;;
59998;SDS011;45859;51.378;6.736;2022-08-11T18:35:18;4.72;;;2.95;;
59998;SDS011;45859;51.378;6.736;2022-08-11T18:38:03;5.07;;;3.03;;
59998;SDS011;45859;51.378;6.736;2022-08-11T18:40:51;4.43;;;3.08;;
59998;SDS011;45859;51.378;6.736;2022-08-11T18:43:36;3.75;;;3.40;;
59998;SDS011;45859;51.378;6.736;2022-08-11T18:46:24;7.18;;;3.50;;
59998;SDS011;45859;51.378;6.736;2022-08-11T18:49:13;5.28;;;3.38;;
59998;SDS011;45859;51.378;6.736;2022-08-11T18:52:01;3.95;;;3.40;;
59998;SDS011;45859;51.378;6.736;2022-08-11T18:54:47;4.75;;;3.10;;
59998;SDS011;45859;51.378;6.736;2022-08-11T18:57:35;3.95;;;3.40;;
59998;SDS011;45859;51.378;6.736;2022-08-11T19:00:21;4.88;;;3.30;;
59998;SDS011;45859;51.378;6.736;2022-08-11T19:03:09;4.63;;;3.65;;
59998;SDS011;45859;51.378;6.736;2022-08-11T19:05:56;4.35;;;3.42;;
59998;SDS011;45859;51.378;6.736;2022-08-11T19:08:45;5.18;;;3.60;;
59998;SDS011;45859;51.378;6.736;2022-08-11T19:11:34;4.57;;;3.50;;
59998;SDS011;45859;51.378;6.736;2022-08-11T19:14:21;5.28;;;3.60;;
59998;SDS011;45859;51.378;6.736;2022-08-11T19:17:07;4.50;;;3.78;;
59998;SDS011;45859;51.378;6.736;2022-08-11T19:19:52;4.78;;;3.55;;
59998;SDS011;45859;51.378;6.736;2022-08-11T19:22:39;6.38;;;3.50;;
59998;SDS011;45859;51.378;6.736;2022-08-11T19:25:26;4.78;;;3.30;;
59998;SDS011;45859;51.378;6.736;2022-08-11T19:28:11;4.03;;;3.63;;
59998;SDS011;45859;51.378;6.736;2022-08-11T19:30:57;5.95;;;3.60;;
59998;SDS011;45859;51.378;6.736;2022-08-11T19:33:42;5.68;;;3.78;;
59998;SDS011;45859;51.378;6.736;2022-08-11T19:36:28;3.75;;;3.35;;
59998;SDS011;45859;51.378;6.736;2022-08-11T19:39:14;4.47;;;3.60;;
59998;SDS011;45859;51.378;6.736;2022-08-11T19:41:58;4.10;;;3.70;;
59998;SDS011;45859;51.378;6.736;2022-08-11T19:44:44;4.03;;;3.63;;
59998;SDS011;45859;51.378;6.736;2022-08-11T19:47:30;6.07;;;4.15;;
59998;SDS011;45859;51.378;6.736;2022-08-11T19:50:15;4.20;;;3.80;;
59998;SDS011;45859;51.378;6.736;2022-08-11T19:53:02;4.78;;;3.83;;
59998;SDS011;45859;51.378;6.736;2022-08-11T19:55:48;4.22;;;3.70;;